Tropical Cyclones
[Index]
Main Index Home Page Stock Weather Photos Extreme Storms Discussion Storm News and Storm Chasing Reports Tropical Cyclones / Hurricanes / Typhoons Weather Data and Links Wild Fires / Bushfires Weather Observation Techniques Weather Picture Catalogue Tornado Pictures and Reports Stock Video Footage and DVDs for sale
Season 1956-1957 Tropical Cyclone 195711 Track Map
Season 1956-1957 Summaries: [BoM-AU] [JTWC-AU] [JTWC-SIO] [JTWC-SPAC] [JTWC-SH]
<<- Previous TC | JTWC 1956-1957 Season | Next TC ->>

click for intensity scale information  Lat/long Grid: Show Hide

 Date Labels: Show Hide

Joint Typhoon Warning Centre Cyclone Data

Name: 195711
Number: 288 / 5711

07 Jan 1957 12:00 UTC to 15 Jan 1957 00:00 UTC

    date/time    lat    long     hPa   cat  kts
1957-01-07 12   18.7   132.3                              
1957-01-07 18   18.6   132.8                              
1957-01-08 00   18.5   133.3                              
1957-01-08 06   18.4   133.8                              
1957-01-08 12   18.3   134.2                              
1957-01-08 18   18.1   134.6                              
1957-01-09 00   18.0   135.0                              
1957-01-09 06   18.2   136.4                              
1957-01-09 12   18.6   138.2                              
1957-01-09 18   18.9   139.3                              
1957-01-10 00   19.1   140.6                              
1957-01-10 06   20.0   143.6                              
1957-01-10 12   21.0   147.1                              
1957-01-10 18   20.6   149.5                              
1957-01-11 00   20.2   152.2                              
1957-01-11 06   20.6   156.0                              
1957-01-11 12   21.0   160.0                              
1957-01-11 18   21.2   163.9                              
1957-01-12 00   21.2   166.8                              
1957-01-12 06   21.0   168.3                              
1957-01-12 12   20.8   169.6                              
1957-01-12 18   20.5   171.1                              
1957-01-13 00   20.3   172.2                              
1957-01-13 06   20.1   172.9                              
1957-01-13 12   20.0   173.6                              
1957-01-13 18   19.9   174.3                              
1957-01-14 00   20.0   175.0                              
1957-01-14 06   20.4   176.0                              
1957-01-14 12   21.0   177.2                              
1957-01-14 18   21.6   178.0                              
1957-01-15 00   22.3   178.7                              
Winds are 1-min average.

Tropical cyclone tracks developed by Michael Bath using data from the Joint Typhoon Warning Centre Best Tracks and Google Maps.


[Australian Severe Weather index] [Copyright Notice] [Email Contacts] [Search This Site] [Privacy Policy]
Document: tropical_cyclone_195711.htm Updated: 18 September 2016